sensor_id;sensor_type;location;lat;lon;timestamp;P1;durP1;ratioP1;P2;durP2;ratioP2
40248;SDS011;25969;49.970;11.062;2024-02-21T05:07:19;13.53;;;4.60;;
40248;SDS011;25969;49.970;11.062;2024-02-21T05:17:19;19.07;;;5.40;;
40248;SDS011;25969;49.970;11.062;2024-02-21T05:27:20;16.20;;;5.00;;
40248;SDS011;25969;49.970;11.062;2024-02-21T05:37:21;18.40;;;5.50;;
40248;SDS011;25969;49.970;11.062;2024-02-21T05:47:21;22.60;;;5.80;;
40248;SDS011;25969;49.970;11.062;2024-02-21T05:57:22;18.17;;;6.40;;
40248;SDS011;25969;49.970;11.062;2024-02-21T06:07:23;18.02;;;5.70;;
40248;SDS011;25969;49.970;11.062;2024-02-21T06:17:23;20.77;;;5.70;;
40248;SDS011;25969;49.970;11.062;2024-02-21T06:27:24;17.23;;;6.13;;
40248;SDS011;25969;49.970;11.062;2024-02-21T06:37:25;19.47;;;5.97;;
40248;SDS011;25969;49.970;11.062;2024-02-21T06:47:26;22.37;;;6.90;;
40248;SDS011;25969;49.970;11.062;2024-02-21T06:57:28;21.40;;;6.70;;
40248;SDS011;25969;49.970;11.062;2024-02-21T07:07:29;11.73;;;5.85;;
40248;SDS011;25969;49.970;11.062;2024-02-21T07:17:30;30.60;;;12.00;;
40248;SDS011;25969;49.970;11.062;2024-02-21T07:27:30;18.17;;;6.07;;
40248;SDS011;25969;49.970;11.062;2024-02-21T07:37:33;18.40;;;7.13;;
40248;SDS011;25969;49.970;11.062;2024-02-21T07:47:34;19.20;;;6.30;;
40248;SDS011;25969;49.970;11.062;2024-02-21T07:57:35;16.80;;;6.20;;
40248;SDS011;25969;49.970;11.062;2024-02-21T08:07:35;19.02;;;5.47;;
40248;SDS011;25969;49.970;11.062;2024-02-21T08:17:36;17.83;;;5.40;;
40248;SDS011;25969;49.970;11.062;2024-02-21T08:27:37;13.53;;;4.57;;
40248;SDS011;25969;49.970;11.062;2024-02-21T08:37:38;15.90;;;5.00;;
40248;SDS011;25969;49.970;11.062;2024-02-21T08:47:39;18.25;;;5.43;;
40248;SDS011;25969;49.970;11.062;2024-02-21T08:57:40;13.70;;;5.20;;
40248;SDS011;25969;49.970;11.062;2024-02-21T09:07:41;18.73;;;7.93;;
40248;SDS011;25969;49.970;11.062;2024-02-21T09:17:42;16.57;;;5.43;;
40248;SDS011;25969;49.970;11.062;2024-02-21T09:27:43;19.03;;;7.13;;
40248;SDS011;25969;49.970;11.062;2024-02-21T09:37:45;14.63;;;4.47;;
40248;SDS011;25969;49.970;11.062;2024-02-21T09:58:25;12.37;;;3.40;;
40248;SDS011;25969;49.970;11.062;2024-02-21T10:08:27;13.63;;;4.03;;
40248;SDS011;25969;49.970;11.062;2024-02-21T10:18:28;9.93;;;2.90;;
40248;SDS011;25969;49.970;11.062;2024-02-21T10:28:29;14.27;;;2.97;;
40248;SDS011;25969;49.970;11.062;2024-02-21T10:38:30;13.13;;;2.97;;
40248;SDS011;25969;49.970;11.062;2024-02-21T10:49:22;12.83;;;2.40;;
40248;SDS011;25969;49.970;11.062;2024-02-21T10:59:30;10.67;;;2.77;;
40248;SDS011;25969;49.970;11.062;2024-02-21T11:09:32;7.20;;;2.10;;
40248;SDS011;25969;49.970;11.062;2024-02-21T11:19:33;20.70;;;7.45;;
40248;SDS011;25969;49.970;11.062;2024-02-21T11:29:39;6.57;;;1.87;;
40248;SDS011;25969;49.970;11.062;2024-02-21T11:39:41;6.70;;;1.83;;
40248;SDS011;25969;49.970;11.062;2024-02-21T11:49:46;7.50;;;2.17;;
40248;SDS011;25969;49.970;11.062;2024-02-21T11:59:50;11.20;;;3.70;;
40248;SDS011;25969;49.970;11.062;2024-02-21T12:09:52;6.53;;;1.50;;
40248;SDS011;25969;49.970;11.062;2024-02-21T12:19:53;8.00;;;1.73;;
40248;SDS011;25969;49.970;11.062;2024-02-21T12:29:54;10.60;;;3.03;;
40248;SDS011;25969;49.970;11.062;2024-02-21T12:39:54;7.27;;;1.57;;
40248;SDS011;25969;49.970;11.062;2024-02-21T12:49:55;7.07;;;1.60;;
40248;SDS011;25969;49.970;11.062;2024-02-21T12:59:58;7.67;;;2.20;;
40248;SDS011;25969;49.970;11.062;2024-02-21T13:09:58;5.63;;;1.50;;
40248;SDS011;25969;49.970;11.062;2024-02-21T13:19:59;6.80;;;2.13;;
40248;SDS011;25969;49.970;11.062;2024-02-21T13:30:00;8.77;;;1.73;;
40248;SDS011;25969;49.970;11.062;2024-02-21T13:40:07;6.53;;;1.80;;
40248;SDS011;25969;49.970;11.062;2024-02-21T13:50:11;5.93;;;1.70;;
40248;SDS011;25969;49.970;11.062;2024-02-21T14:00:14;6.93;;;1.67;;
40248;SDS011;25969;49.970;11.062;2024-02-21T14:10:15;7.45;;;1.45;;
40248;SDS011;25969;49.970;11.062;2024-02-21T14:20:16;6.43;;;2.50;;
40248;SDS011;25969;49.970;11.062;2024-02-21T14:30:16;6.03;;;1.40;;
40248;SDS011;25969;49.970;11.062;2024-02-21T14:40:17;6.10;;;1.50;;
40248;SDS011;25969;49.970;11.062;2024-02-21T14:50:19;7.75;;;1.40;;
40248;SDS011;25969;49.970;11.062;2024-02-21T15:00:20;8.60;;;1.90;;
40248;SDS011;25969;49.970;11.062;2024-02-21T15:10:23;7.17;;;1.60;;
40248;SDS011;25969;49.970;11.062;2024-02-21T15:20:23;6.27;;;1.20;;
40248;SDS011;25969;49.970;11.062;2024-02-21T15:30:24;5.27;;;1.00;;
40248;SDS011;25969;49.970;11.062;2024-02-21T15:40:25;7.00;;;1.50;;
40248;SDS011;25969;49.970;11.062;2024-02-21T15:50:25;5.82;;;1.60;;
40248;SDS011;25969;49.970;11.062;2024-02-21T16:00:28;7.37;;;1.57;;
40248;SDS011;25969;49.970;11.062;2024-02-21T16:10:28;4.13;;;1.23;;
40248;SDS011;25969;49.970;11.062;2024-02-21T16:20:29;5.75;;;1.48;;
40248;SDS011;25969;49.970;11.062;2024-02-21T16:30:30;3.93;;;1.20;;
40248;SDS011;25969;49.970;11.062;2024-02-21T16:40:31;4.90;;;1.20;;
40248;SDS011;25969;49.970;11.062;2024-02-21T16:50:32;7.63;;;1.30;;
40248;SDS011;25969;49.970;11.062;2024-02-21T17:00:33;5.27;;;1.10;;
40248;SDS011;25969;49.970;11.062;2024-02-21T17:10:34;6.72;;;1.35;;
40248;SDS011;25969;49.970;11.062;2024-02-21T17:20:35;7.27;;;1.20;;
40248;SDS011;25969;49.970;11.062;2024-02-21T17:30:36;6.47;;;1.27;;
40248;SDS011;25969;49.970;11.062;2024-02-21T17:40:37;4.37;;;1.10;;
40248;SDS011;25969;49.970;11.062;2024-02-21T17:50:37;6.37;;;1.17;;
40248;SDS011;25969;49.970;11.062;2024-02-21T18:00:39;4.82;;;1.20;;
40248;SDS011;25969;49.970;11.062;2024-02-21T18:10:44;5.50;;;1.30;;
40248;SDS011;25969;49.970;11.062;2024-02-21T18:20:44;5.03;;;1.37;;
40248;SDS011;25969;49.970;11.062;2024-02-21T18:30:45;5.17;;;1.30;;
40248;SDS011;25969;49.970;11.062;2024-02-21T18:40:46;5.33;;;1.50;;
40248;SDS011;25969;49.970;11.062;2024-02-21T18:50:48;6.53;;;1.67;;
40248;SDS011;25969;49.970;11.062;2024-02-21T19:00:48;4.70;;;1.40;;
40248;SDS011;25969;49.970;11.062;2024-02-21T19:10:50;3.47;;;1.20;;
40248;SDS011;25969;49.970;11.062;2024-02-21T19:20:51;5.33;;;1.40;;
40248;SDS011;25969;49.970;11.062;2024-02-21T19:30:52;5.63;;;1.00;;
40248;SDS011;25969;49.970;11.062;2024-02-21T19:40:54;3.60;;;1.00;;
40248;SDS011;25969;49.970;11.062;2024-02-21T19:50:55;4.20;;;1.17;;
40248;SDS011;25969;49.970;11.062;2024-02-21T20:00:57;3.72;;;1.00;;
40248;SDS011;25969;49.970;11.062;2024-02-21T20:10:57;3.70;;;0.90;;
40248;SDS011;25969;49.970;11.062;2024-02-21T20:20:58;2.40;;;0.80;;
40248;SDS011;25969;49.970;11.062;2024-02-21T20:30:59;2.43;;;0.90;;
40248;SDS011;25969;49.970;11.062;2024-02-21T20:40:59;2.58;;;0.70;;
40248;SDS011;25969;49.970;11.062;2024-02-21T20:51:02;2.23;;;0.80;;
40248;SDS011;25969;49.970;11.062;2024-02-21T21:01:03;2.20;;;0.70;;
40248;SDS011;25969;49.970;11.062;2024-02-21T21:11:04;1.67;;;0.60;;
40248;SDS011;25969;49.970;11.062;2024-02-21T21:21:04;1.63;;;0.60;;
40248;SDS011;25969;49.970;11.062;2024-02-21T21:31:06;2.92;;;0.60;;
40248;SDS011;25969;49.970;11.062;2024-02-21T21:41:06;1.77;;;0.60;;
40248;SDS011;25969;49.970;11.062;2024-02-21T21:51:07;2.23;;;0.60;;
40248;SDS011;25969;49.970;11.062;2024-02-21T22:01:11;3.73;;;0.70;;
40248;SDS011;25969;49.970;11.062;2024-02-21T22:11:42;2.35;;;0.80;;
40248;SDS011;25969;49.970;11.062;2024-02-21T22:21:43;2.75;;;0.77;;
40248;SDS011;25969;49.970;11.062;2024-02-21T22:31:44;2.85;;;0.90;;
40248;SDS011;25969;49.970;11.062;2024-02-21T22:41:44;2.00;;;1.00;;
40248;SDS011;25969;49.970;11.062;2024-02-21T22:51:45;4.03;;;1.10;;
